createdAt,value
2019-03-17T00:00:29.885Z,10.23
2019-03-17T00:03:03.546Z,8.73
2019-03-17T00:05:37.796Z,8.00
2019-03-17T00:08:11.270Z,9.40
2019-03-17T00:10:44.899Z,8.03
2019-03-17T00:13:18.659Z,7.97
2019-03-17T00:15:59.825Z,8.55
2019-03-17T00:18:38.492Z,7.78
2019-03-17T00:21:14.209Z,9.70
2019-03-17T00:23:47.680Z,10.70
2019-03-17T00:26:21.500Z,10.43
2019-03-17T00:28:56.042Z,10.78
2019-03-17T00:31:29.542Z,9.53
2019-03-17T00:34:03.253Z,10.63
2019-03-17T00:36:37.127Z,9.95
2019-03-17T00:39:10.668Z,9.95
2019-03-17T00:41:44.265Z,9.83
2019-03-17T00:44:17.816Z,10.38
2019-03-17T00:46:51.331Z,11.00
2019-03-17T00:49:26.173Z,12.23
2019-03-17T00:51:59.672Z,10.95
2019-03-17T00:54:33.229Z,11.35
2019-03-17T00:57:07.289Z,10.72
2019-03-17T00:59:40.920Z,11.20
2019-03-17T01:02:14.310Z,13.08
2019-03-17T01:04:56.114Z,16.30
2019-03-17T01:07:23.226Z,17.12
2019-03-17T01:09:57.605Z,14.00
2019-03-17T01:12:31.174Z,14.18
2019-03-17T01:15:04.705Z,11.73
2019-03-17T01:17:38.229Z,11.63
2019-03-17T01:20:11.706Z,11.70
2019-03-17T01:22:45.071Z,12.10
2019-03-17T01:25:18.415Z,13.32
2019-03-17T01:27:51.811Z,17.82
2019-03-17T01:30:25.222Z,14.78
2019-03-17T01:32:59.794Z,12.25
2019-03-17T01:35:33.130Z,13.00
2019-03-17T01:38:06.635Z,10.90
2019-03-17T01:40:40.170Z,9.83
2019-03-17T01:43:13.537Z,10.25
2019-03-17T01:45:48.249Z,9.35
2019-03-17T01:48:21.592Z,9.70
2019-03-17T01:50:55.131Z,9.60
2019-03-17T01:53:28.540Z,9.53
2019-03-17T01:56:01.936Z,8.93
2019-03-17T01:58:35.303Z,10.03
2019-03-17T02:01:11.758Z,9.40
2019-03-17T02:03:44.845Z,7.85
2019-03-17T02:06:19.247Z,8.98
2019-03-17T02:08:53.328Z,7.70
2019-03-17T02:11:26.902Z,6.47
2019-03-17T02:14:00.728Z,6.87
2019-03-17T02:16:34.246Z,7.33
2019-03-17T02:19:07.748Z,7.10
2019-03-17T02:21:41.350Z,7.45
2019-03-17T02:24:14.775Z,7.15
2019-03-17T02:26:48.283Z,6.92
2019-03-17T02:29:21.647Z,5.97
2019-03-17T02:31:55.052Z,6.15
2019-03-17T02:34:28.458Z,5.85
2019-03-17T02:37:02.028Z,6.10
2019-03-17T02:39:35.741Z,5.97
2019-03-17T02:42:09.290Z,6.62
2019-03-17T02:44:42.714Z,6.00
2019-03-17T02:47:16.431Z,6.20
2019-03-17T02:49:49.770Z,6.15
2019-03-17T02:52:23.489Z,5.35
2019-03-17T02:54:57.282Z,5.67
2019-03-17T02:57:30.651Z,4.80
2019-03-17T03:00:04.093Z,5.15
2019-03-17T03:02:38.561Z,5.33
2019-03-17T03:05:12.106Z,5.08
2019-03-17T03:07:45.515Z,5.15
2019-03-17T03:10:19.353Z,5.97
2019-03-17T03:12:52.805Z,5.60
2019-03-17T03:15:26.301Z,4.90
2019-03-17T03:17:59.879Z,4.95
2019-03-17T03:20:33.450Z,5.10
2019-03-17T03:23:08.413Z,4.45
2019-03-17T03:25:42.825Z,4.83
2019-03-17T03:28:16.305Z,5.20
2019-03-17T03:30:49.804Z,5.15
2019-03-17T03:33:23.368Z,4.85
2019-03-17T03:36:09.765Z,4.90
2019-03-17T03:38:31.997Z,4.97
2019-03-17T03:41:05.362Z,5.20
2019-03-17T03:43:39.371Z,4.33
2019-03-17T03:46:12.877Z,5.10
2019-03-17T03:48:46.343Z,4.30
2019-03-17T03:51:20.473Z,4.75
2019-03-17T03:53:55.110Z,5.45
2019-03-17T03:56:28.612Z,5.05
2019-03-17T03:59:02.067Z,5.08
2019-03-17T04:01:35.815Z,5.47
2019-03-17T04:04:09.225Z,5.10
2019-03-17T04:06:42.689Z,5.95
2019-03-17T04:09:16.072Z,5.40
2019-03-17T04:11:49.564Z,5.00
2019-03-17T04:14:23.051Z,5.05
2019-03-17T04:16:56.525Z,4.45
2019-03-17T04:19:29.918Z,4.83
2019-03-17T04:22:03.710Z,4.25
2019-03-17T04:24:37.243Z,4.78
2019-03-17T04:27:10.644Z,4.85
2019-03-17T04:29:44.479Z,5.00
2019-03-17T04:32:18.260Z,5.17
2019-03-17T04:34:51.734Z,6.00
2019-03-17T04:37:25.253Z,5.35
2019-03-17T04:39:58.752Z,5.15
2019-03-17T04:42:32.642Z,5.30
2019-03-17T04:45:06.663Z,4.17
2019-03-17T04:47:40.159Z,4.55
2019-03-17T04:50:13.592Z,5.33
2019-03-17T04:52:46.978Z,5.58
2019-03-17T04:55:20.406Z,5.42
2019-03-17T04:57:54.160Z,4.42
2019-03-17T05:00:28.688Z,5.67
2019-03-17T05:03:02.321Z,6.58
2019-03-17T05:05:35.829Z,7.30
2019-03-17T05:08:09.277Z,9.28
2019-03-17T05:10:42.701Z,33.95
2019-03-17T05:13:16.128Z,32.80
2019-03-17T05:15:49.563Z,25.15
2019-03-17T05:18:23.000Z,45.12
2019-03-17T05:20:56.470Z,46.63
2019-03-17T05:23:30.340Z,56.08
2019-03-17T05:26:03.894Z,57.98
2019-03-17T05:28:37.747Z,57.35
2019-03-17T05:31:11.278Z,34.15
2019-03-17T05:33:44.820Z,22.87
2019-03-17T05:36:18.246Z,11.35
2019-03-17T05:38:51.837Z,7.60
2019-03-17T05:41:25.689Z,10.28
2019-03-17T05:43:59.133Z,10.45
2019-03-17T05:46:32.678Z,9.63
2019-03-17T05:49:06.137Z,19.60
2019-03-17T05:51:41.029Z,14.33
2019-03-17T05:54:15.433Z,6.22
2019-03-17T05:56:48.925Z,7.50
2019-03-17T05:59:22.374Z,7.70
2019-03-17T06:02:22.811Z,7.00
2019-03-17T06:04:56.365Z,5.58
2019-03-17T06:07:29.947Z,7.35
2019-03-17T06:10:03.846Z,5.22
2019-03-17T06:12:37.820Z,6.20
2019-03-17T06:15:12.486Z,5.30
2019-03-17T06:17:45.980Z,6.17
2019-03-17T06:20:19.412Z,5.62
2019-03-17T06:22:52.888Z,7.37
2019-03-17T06:25:26.724Z,6.12
2019-03-17T06:28:00.257Z,5.53
2019-03-17T06:30:34.596Z,4.95
2019-03-17T06:33:08.659Z,5.10
2019-03-17T06:35:42.701Z,5.03
2019-03-17T06:38:16.589Z,5.45
2019-03-17T06:40:51.067Z,5.00
2019-03-17T06:43:25.415Z,4.58
2019-03-17T06:45:59.979Z,4.65
2019-03-17T06:52:27.911Z,4.65
2019-03-17T07:21:22.524Z,3.22
2019-03-17T07:23:57.791Z,3.50
2019-03-17T07:26:32.313Z,3.60
2019-03-17T07:29:07.861Z,5.00
2019-03-17T07:31:41.579Z,4.45
2019-03-17T07:34:15.055Z,3.65
2019-03-17T07:37:15.771Z,4.15
2019-03-17T07:40:23.712Z,3.65
2019-03-17T07:43:35.815Z,3.85
2019-03-17T07:46:41.842Z,3.80
2019-03-17T08:06:38.323Z,4.20
2019-03-17T08:09:44.509Z,4.65
2019-03-17T08:12:25.935Z,4.60
2019-03-17T08:15:16.558Z,4.15
2019-03-17T08:17:53.041Z,4.50
2019-03-17T08:20:27.133Z,3.90
2019-03-17T08:23:00.672Z,3.80
2019-03-17T08:25:35.397Z,3.40
2019-03-17T08:28:16.009Z,4.28
2019-03-17T08:30:53.441Z,3.60
2019-03-17T08:33:29.352Z,3.40
2019-03-17T08:36:03.697Z,2.80
2019-03-17T08:38:37.364Z,3.77
2019-03-17T08:49:18.989Z,4.30
2019-03-17T08:51:52.306Z,6.85
2019-03-17T08:54:31.119Z,3.58
2019-03-17T08:57:04.722Z,2.87
2019-03-17T08:59:38.079Z,3.10
2019-03-17T09:02:14.020Z,2.70
2019-03-17T09:04:58.528Z,2.90
2019-03-17T09:07:45.427Z,3.45
2019-03-17T09:10:22.658Z,5.05
2019-03-17T09:12:56.013Z,7.75
2019-03-17T09:15:38.321Z,5.50
2019-03-17T09:18:13.516Z,2.95
2019-03-17T09:20:47.180Z,3.25
2019-03-17T09:23:20.350Z,3.22
2019-03-17T09:25:53.524Z,2.83
2019-03-17T09:28:32.282Z,3.33
2019-03-17T09:31:07.609Z,3.00
2019-03-17T09:33:41.299Z,3.17
2019-03-17T09:36:14.651Z,3.00
2019-03-17T09:38:47.912Z,3.15
2019-03-17T09:41:30.948Z,3.20
2019-03-17T09:44:09.798Z,2.70
2019-03-17T09:46:44.188Z,2.75
2019-03-17T09:49:20.849Z,6.55
2019-03-17T09:51:57.757Z,3.25
2019-03-17T09:54:33.761Z,3.90
2019-03-17T09:57:07.044Z,1.87
2019-03-17T09:59:41.822Z,2.83
2019-03-17T10:02:15.310Z,4.28
2019-03-17T10:04:48.512Z,4.15
2019-03-17T10:07:22.727Z,2.42
2019-03-17T10:09:56.314Z,2.90
2019-03-17T10:12:29.665Z,4.80
2019-03-17T10:15:02.944Z,2.30
2019-03-17T10:17:36.474Z,2.98
2019-03-17T10:20:13.833Z,1.90
2019-03-17T10:22:46.972Z,2.70
2019-03-17T10:25:20.105Z,2.22
2019-03-17T10:27:53.229Z,2.45
2019-03-17T10:30:26.589Z,2.27
2019-03-17T10:33:01.446Z,1.80
2019-03-17T10:35:34.688Z,1.95
2019-03-17T10:38:07.893Z,1.80
2019-03-17T10:40:41.053Z,1.60
2019-03-17T10:43:15.230Z,1.72
2019-03-17T10:45:48.452Z,1.92
2019-03-17T10:48:21.689Z,1.55
2019-03-17T10:50:54.941Z,1.55
2019-03-17T10:53:28.185Z,22.95
2019-03-17T10:56:01.340Z,19.42
2019-03-17T10:58:34.426Z,12.78
2019-03-17T11:01:07.674Z,5.10
2019-03-17T11:03:41.919Z,7.72
2019-03-17T11:06:15.352Z,3.25
2019-03-17T11:08:49.023Z,3.20
2019-03-17T11:11:26.651Z,3.10
2019-03-17T11:17:21.696Z,2.05
2019-03-17T11:19:55.591Z,3.12
2019-03-17T11:22:31.615Z,3.37
2019-03-17T11:25:05.857Z,3.85
2019-03-17T11:27:41.819Z,2.40
2019-03-17T11:30:15.085Z,3.60
2019-03-17T11:32:48.208Z,4.08
2019-03-17T11:35:22.314Z,6.17
2019-03-17T11:37:55.335Z,4.50
2019-03-17T11:40:28.258Z,3.10
2019-03-17T11:43:01.770Z,3.05
2019-03-17T11:45:35.680Z,3.02
2019-03-17T11:48:08.691Z,6.10
2019-03-17T11:50:41.755Z,3.45
2019-03-17T11:53:16.275Z,4.78
2019-03-17T11:55:49.790Z,3.37
2019-03-17T11:58:26.575Z,3.12
2019-03-17T12:01:02.070Z,60.25
2019-03-17T12:03:35.273Z,15.43
2019-03-17T12:06:08.869Z,7.30
2019-03-17T12:08:43.015Z,4.75
2019-03-17T12:11:16.344Z,2.37
2019-03-17T12:13:49.527Z,2.40
2019-03-17T12:16:23.548Z,3.47
2019-03-17T12:18:57.630Z,2.75
2019-03-17T12:21:30.764Z,2.20
2019-03-17T12:24:04.035Z,2.10
2019-03-17T12:26:38.326Z,2.30
2019-03-17T12:29:11.824Z,2.62
2019-03-17T12:31:45.010Z,2.50
2019-03-17T12:34:27.797Z,4.00
2019-03-17T12:36:52.989Z,2.22
2019-03-17T12:39:26.081Z,2.02
2019-03-17T12:41:59.210Z,3.70
2019-03-17T12:44:33.723Z,1.90
2019-03-17T12:47:07.221Z,1.70
2019-03-17T12:49:40.335Z,1.47
2019-03-17T12:52:13.852Z,1.40
2019-03-17T12:54:47.953Z,2.30
2019-03-17T12:57:21.020Z,2.10
2019-03-17T12:59:54.204Z,1.72
2019-03-17T13:02:27.340Z,1.57
2019-03-17T13:05:00.471Z,2.90
2019-03-17T13:07:34.457Z,1.77
2019-03-17T13:10:15.715Z,2.52
2019-03-17T13:12:43.667Z,2.12
2019-03-17T13:15:16.730Z,1.90
2019-03-17T13:17:49.839Z,2.00
2019-03-17T13:20:22.875Z,4.08
2019-03-17T13:22:55.956Z,2.92
2019-03-17T13:25:29.066Z,2.22
2019-03-17T13:28:02.200Z,1.95
2019-03-17T13:30:35.358Z,3.60
2019-03-17T13:33:08.862Z,9.60
2019-03-17T13:35:41.949Z,6.08
2019-03-17T13:38:16.041Z,4.45
2019-03-17T13:40:49.286Z,4.20
2019-03-17T13:43:22.330Z,3.20
2019-03-17T13:45:55.490Z,2.58
2019-03-17T13:48:28.577Z,3.47
2019-03-17T13:51:02.342Z,6.17
2019-03-17T13:53:35.502Z,7.67
2019-03-17T13:56:08.978Z,5.47
2019-03-17T13:58:42.055Z,9.50
2019-03-17T14:01:15.066Z,6.05
2019-03-17T14:03:47.943Z,2.45
2019-03-17T14:06:20.790Z,4.10
2019-03-17T14:08:54.175Z,2.75
2019-03-17T14:11:27.083Z,3.35
2019-03-17T14:14:00.263Z,3.80
2019-03-17T14:16:36.338Z,2.60
2019-03-17T14:19:11.088Z,5.25
2019-03-17T14:21:44.250Z,10.53
2019-03-17T14:24:17.437Z,5.22
2019-03-17T14:26:50.672Z,4.72
2019-03-17T14:29:24.035Z,3.22
2019-03-17T14:31:57.122Z,5.53
2019-03-17T14:34:30.204Z,3.92
2019-03-17T14:37:03.320Z,6.28
2019-03-17T14:39:36.342Z,6.78
2019-03-17T14:42:09.447Z,3.62
2019-03-17T14:44:42.735Z,3.72
2019-03-17T14:47:15.918Z,2.55
2019-03-17T14:49:48.990Z,34.73
2019-03-17T14:52:22.128Z,19.85
2019-03-17T14:54:55.223Z,30.02
2019-03-17T14:57:28.360Z,7.15
2019-03-17T15:00:01.477Z,3.10
2019-03-17T15:02:34.697Z,4.60
2019-03-17T15:05:08.572Z,4.00
2019-03-17T15:07:41.763Z,3.75
2019-03-17T15:10:16.983Z,8.43
2019-03-17T15:12:51.595Z,34.58
2019-03-17T15:15:24.729Z,38.40
2019-03-17T15:17:57.768Z,34.90
2019-03-17T15:20:31.950Z,42.33
2019-03-17T15:23:05.550Z,67.87
2019-03-17T15:25:39.053Z,27.07
2019-03-17T15:28:23.563Z,29.57
2019-03-17T15:31:10.973Z,25.48
2019-03-17T15:33:37.233Z,24.27
2019-03-17T15:36:11.423Z,11.20
2019-03-17T15:38:47.273Z,10.63
2019-03-17T15:41:26.635Z,4.62
2019-03-17T15:44:05.390Z,5.17
2019-03-17T15:46:39.867Z,4.80
2019-03-17T15:49:14.529Z,6.20
2019-03-17T15:51:48.081Z,31.07
2019-03-17T15:54:21.749Z,10.38
2019-03-17T15:56:55.674Z,9.50
2019-03-17T15:59:28.977Z,16.32
2019-03-17T16:02:03.695Z,8.05
2019-03-17T16:04:37.245Z,10.58
2019-03-17T16:07:10.729Z,10.40
2019-03-17T16:09:44.483Z,8.90
2019-03-17T16:12:17.962Z,12.98
2019-03-17T16:14:51.567Z,14.90
2019-03-17T16:17:25.133Z,12.63
2019-03-17T16:19:58.751Z,12.75
2019-03-17T16:22:32.296Z,32.70
2019-03-17T16:25:07.310Z,92.02
2019-03-17T16:27:40.747Z,120.15
2019-03-17T16:30:20.474Z,121.97
2019-03-17T16:32:57.038Z,104.17
2019-03-17T16:35:30.597Z,97.57
2019-03-17T16:38:04.140Z,43.40
2019-03-17T16:40:43.210Z,40.73
2019-03-17T16:43:20.477Z,37.95
2019-03-17T16:46:20.836Z,30.75
2019-03-17T17:10:07.333Z,38.13
2019-03-17T17:20:17.611Z,21.02
2019-03-17T17:26:36.535Z,32.95
2019-03-17T17:29:10.232Z,12.85
2019-03-17T17:32:00.037Z,10.85
2019-03-17T17:34:33.291Z,16.37
2019-03-17T17:37:06.608Z,15.70
2019-03-17T17:39:39.817Z,15.55
2019-03-17T17:42:29.305Z,15.48
2019-03-17T17:45:10.206Z,13.30
2019-03-17T17:47:44.548Z,5.03
2019-03-17T17:50:18.599Z,9.88
2019-03-17T17:52:51.969Z,10.18
2019-03-17T17:55:25.210Z,20.40
2019-03-17T17:57:58.485Z,49.75
2019-03-17T18:00:35.277Z,5.08
2019-03-17T18:03:09.701Z,3.20
2019-03-17T18:05:43.198Z,5.42
2019-03-17T18:08:16.647Z,10.85
2019-03-17T18:10:50.021Z,5.70
2019-03-17T18:13:23.319Z,2.85
2019-03-17T18:15:56.617Z,3.67
2019-03-17T18:18:29.859Z,3.10
2019-03-17T18:21:03.477Z,3.65
2019-03-17T18:23:36.848Z,8.45
2019-03-17T18:26:10.451Z,7.10
2019-03-17T18:28:43.844Z,48.70
2019-03-17T18:32:58.898Z,77.22
2019-03-17T18:55:20.778Z,11.33
2019-03-17T19:02:38.749Z,13.18
2019-03-17T19:06:34.140Z,4.45
2019-03-17T19:09:35.224Z,2.42
2019-03-17T19:12:12.796Z,1.40
2019-03-17T19:14:46.613Z,3.10
2019-03-17T19:17:22.095Z,3.35
2019-03-17T19:20:02.459Z,8.23
2019-03-17T19:22:36.799Z,12.93
2019-03-17T19:25:18.755Z,10.32
2019-03-17T19:27:52.774Z,8.80
2019-03-17T19:30:27.284Z,9.48
2019-03-17T19:33:01.281Z,12.05
2019-03-17T19:35:35.165Z,37.20
2019-03-17T19:38:09.622Z,38.60
2019-03-17T19:40:45.447Z,29.10
2019-03-17T19:43:19.047Z,17.25
2019-03-17T19:45:52.757Z,8.30
2019-03-17T19:48:27.432Z,20.27
2019-03-17T19:51:01.588Z,13.85
2019-03-17T19:53:35.420Z,15.03
2019-03-17T19:56:08.923Z,8.98
2019-03-17T19:58:43.443Z,5.12
2019-03-17T20:01:19.900Z,7.92
2019-03-17T20:03:54.450Z,7.92
2019-03-17T20:06:28.144Z,8.30
2019-03-17T20:09:02.260Z,6.97
2019-03-17T20:11:36.857Z,7.42
2019-03-17T20:14:10.691Z,7.53
2019-03-17T20:16:44.461Z,8.15
2019-03-17T20:19:17.907Z,7.47
2019-03-17T20:21:51.490Z,7.28
2019-03-17T20:24:25.160Z,6.55
2019-03-17T20:26:58.737Z,5.05
2019-03-17T20:29:32.417Z,6.08
2019-03-17T20:32:06.168Z,7.37
2019-03-17T20:34:40.017Z,5.08
2019-03-17T20:37:13.543Z,4.15
2019-03-17T20:39:47.091Z,4.95
2019-03-17T20:42:21.070Z,8.25
2019-03-17T20:44:55.521Z,5.72
2019-03-17T20:47:29.070Z,6.83
2019-03-17T20:50:02.660Z,6.40
2019-03-17T20:52:36.140Z,5.87
2019-03-17T20:55:09.892Z,4.95
2019-03-17T20:57:43.395Z,4.15
2019-03-17T21:00:17.003Z,4.97
2019-03-17T21:02:50.928Z,5.97
2019-03-17T21:05:24.443Z,5.72
2019-03-17T21:07:58.463Z,6.90
2019-03-17T21:10:32.121Z,3.55
2019-03-17T21:13:09.390Z,6.45
2019-03-17T21:15:42.520Z,7.60
2019-03-17T21:18:15.701Z,7.58
2019-03-17T21:20:48.861Z,5.85
2019-03-17T21:23:22.106Z,2.92
2019-03-17T21:25:55.297Z,2.98
2019-03-17T21:28:28.560Z,5.45
2019-03-17T21:31:01.948Z,3.55
2019-03-17T21:33:35.120Z,3.27
2019-03-17T21:36:08.316Z,3.98
2019-03-17T21:38:41.465Z,3.60
2019-03-17T21:41:14.586Z,3.10
2019-03-17T21:43:58.932Z,3.30
2019-03-17T21:46:22.547Z,5.08
2019-03-17T21:48:57.232Z,4.30
2019-03-17T21:51:30.384Z,4.37
2019-03-17T21:54:03.531Z,7.08
2019-03-17T21:56:36.664Z,6.50
2019-03-17T21:59:09.806Z,6.10
2019-03-17T22:01:42.930Z,6.72
2019-03-17T22:04:16.160Z,5.65
2019-03-17T22:06:49.369Z,5.62
2019-03-17T22:09:22.471Z,4.72
2019-03-17T22:11:56.511Z,4.83
2019-03-17T22:14:29.650Z,4.55
2019-03-17T22:17:02.767Z,5.15
2019-03-17T22:19:35.921Z,6.45
2019-03-17T22:22:09.205Z,4.90
2019-03-17T22:24:42.394Z,5.15
2019-03-17T22:27:15.535Z,4.40
2019-03-17T22:29:49.056Z,5.28
2019-03-17T22:32:22.531Z,5.15
2019-03-17T22:34:55.686Z,4.80
2019-03-17T22:37:28.874Z,4.70
2019-03-17T22:40:02.092Z,5.75
2019-03-17T22:42:35.264Z,4.92
2019-03-17T22:45:09.069Z,5.62
2019-03-17T22:47:42.242Z,5.60
2019-03-17T22:50:15.480Z,5.10
2019-03-17T22:52:48.614Z,4.92
2019-03-17T22:55:21.769Z,4.40
2019-03-17T22:57:54.952Z,6.25
2019-03-17T23:00:44.785Z,5.78
2019-03-17T23:03:19.119Z,6.45
2019-03-17T23:05:52.407Z,5.62
2019-03-17T23:08:25.748Z,6.03
2019-03-17T23:10:59.090Z,5.67
2019-03-17T23:13:32.565Z,4.12
2019-03-17T23:16:05.830Z,5.53
2019-03-17T23:18:39.151Z,4.70
2019-03-17T23:21:12.767Z,5.15
2019-03-17T23:23:46.917Z,4.92
2019-03-17T23:26:20.201Z,5.37
2019-03-17T23:28:53.511Z,4.97
2019-03-17T23:31:26.753Z,5.17
2019-03-17T23:34:00.131Z,5.45
2019-03-17T23:36:33.410Z,6.08
2019-03-17T23:39:07.940Z,11.18
2019-03-17T23:41:41.227Z,15.08
2019-03-17T23:44:14.608Z,40.88
2019-03-17T23:46:47.886Z,30.35
2019-03-17T23:49:21.311Z,27.32
2019-03-17T23:51:55.672Z,19.73
2019-03-17T23:54:29.167Z,22.15
2019-03-17T23:57:02.474Z,14.80
2019-03-17T23:59:36.028Z,23.85
